createdAt,value
2022-12-17T00:02:17.265Z,102406.56
2022-12-17T00:05:02.291Z,102405.59
2022-12-17T00:07:47.161Z,102415.56
2022-12-17T00:10:31.901Z,102413.91
2022-12-17T00:13:17.010Z,102412.81
2022-12-17T00:16:02.086Z,102417.19
2022-12-17T00:18:47.261Z,102424.03
2022-12-17T00:21:32.481Z,102424.03
2022-12-17T00:24:22.060Z,102425.94
2022-12-17T00:27:06.752Z,102429.34
2022-12-17T00:29:51.903Z,102434.66
2022-12-17T00:32:36.941Z,102435.59
2022-12-17T00:35:22.278Z,102439.97
2022-12-17T00:38:07.260Z,102436.44
2022-12-17T00:40:52.405Z,102442.56
2022-12-17T00:43:37.825Z,102434.78
2022-12-17T00:46:23.426Z,102438.19
2022-12-17T00:49:08.580Z,102445.97
2022-12-17T00:51:53.771Z,102448.56
2022-12-17T00:54:39.004Z,102449.38
2022-12-17T00:57:24.005Z,102450.47
2022-12-17T01:00:09.010Z,102453.88
2022-12-17T01:02:54.563Z,102455.66
2022-12-17T01:05:41.288Z,102454.84
2022-12-17T01:08:28.510Z,102460.03
2022-12-17T01:11:22.309Z,102461.09
2022-12-17T01:14:07.477Z,102459.47
2022-12-17T01:16:53.396Z,102463.69
2022-12-17T01:19:41.399Z,102462.88
2022-12-17T01:22:26.494Z,102463.00
2022-12-17T01:25:11.630Z,102466.69
2022-12-17T01:27:56.801Z,102464.91
2022-12-17T01:30:41.759Z,102468.44
2022-12-17T01:33:28.489Z,102459.97
2022-12-17T01:36:17.886Z,102458.22
2022-12-17T01:39:03.554Z,102465.16
2022-12-17T01:41:48.541Z,102475.66
2022-12-17T01:45:04.569Z,102474.72
2022-12-17T01:48:04.892Z,102473.91
2022-12-17T01:50:54.268Z,102486.16
2022-12-17T01:53:43.891Z,102481.09
2022-12-17T01:56:29.860Z,102485.47
2022-12-17T01:59:16.662Z,102485.47
2022-12-17T02:02:01.811Z,102489.16
2022-12-17T02:04:47.528Z,102475.22
2022-12-17T02:07:47.648Z,102479.63
2022-12-17T02:10:45.632Z,102485.75
2022-12-17T02:13:49.876Z,102495.19
2022-12-17T02:16:38.096Z,102489.16
2022-12-17T02:19:57.413Z,102486.72
2022-12-17T02:22:57.783Z,102489.44
2022-12-17T02:26:08.254Z,102488.59
2022-12-17T02:28:56.444Z,102487.66
2022-12-17T02:31:43.087Z,102488.59
2022-12-17T02:34:28.125Z,102491.44
2022-12-17T02:37:13.181Z,102490.75
2022-12-17T02:39:58.625Z,102503.84
2022-12-17T02:42:45.829Z,102498.66
2022-12-17T02:45:31.142Z,102507.25
2022-12-17T02:48:17.727Z,102499.47
2022-12-17T02:51:02.865Z,102501.38
2022-12-17T02:53:50.370Z,102500.69
2022-12-17T02:56:35.580Z,102507.50
2022-12-17T02:59:20.719Z,102506.81
2022-12-17T03:02:06.010Z,102501.88
2022-12-17T03:04:51.068Z,102503.22
2022-12-17T03:07:36.089Z,102503.72
2022-12-17T03:10:21.176Z,102504.78
2022-12-17T03:13:06.215Z,102511.63
2022-12-17T03:15:51.332Z,102520.91
2022-12-17T03:18:36.605Z,102529.38
2022-12-17T03:21:21.843Z,102525.03
2022-12-17T03:24:07.009Z,102529.25
2022-12-17T03:26:51.880Z,102534.44
2022-12-17T03:29:36.813Z,102530.06
2022-12-17T03:32:21.929Z,102517.94
2022-12-17T03:35:06.857Z,102518.88
2022-12-17T03:37:52.028Z,102517.25
2022-12-17T03:40:37.114Z,102519.84
2022-12-17T03:43:29.861Z,102514.09
2022-12-17T03:46:15.629Z,102508.34
2022-12-17T03:49:00.825Z,102512.16
2022-12-17T03:51:45.887Z,102525.94
2022-12-17T03:54:30.961Z,102530.28
2022-12-17T03:57:16.560Z,102524.41
2022-12-17T04:00:01.743Z,102516.88
2022-12-17T04:02:47.015Z,102515.38
2022-12-17T04:05:32.066Z,102522.31
2022-12-17T04:08:33.780Z,102524.22
2022-12-17T04:11:18.998Z,102530.34
2022-12-17T04:14:04.349Z,102519.97
2022-12-17T04:16:49.859Z,102517.38
2022-12-17T04:19:34.579Z,102520.09
2022-12-17T04:22:19.869Z,102514.59
2022-12-17T04:25:04.901Z,102528.63
2022-12-17T04:27:50.311Z,102535.56
2022-12-17T04:30:35.604Z,102540.50
2022-12-17T04:33:20.803Z,102544.72
2022-12-17T04:36:05.899Z,102543.66
2022-12-17T04:38:51.065Z,102549.66
2022-12-17T04:41:36.267Z,102565.06
2022-12-17T04:44:21.089Z,102576.97
2022-12-17T04:47:06.129Z,102570.72
2022-12-17T04:49:51.318Z,102574.00
2022-12-17T04:52:36.465Z,102562.00
2022-12-17T04:55:22.106Z,102558.47
2022-12-17T04:58:07.205Z,102567.88
2022-12-17T05:00:52.223Z,102575.06
2022-12-17T05:03:37.731Z,102578.34
2022-12-17T05:06:23.107Z,102575.66
2022-12-17T05:09:08.130Z,102577.28
2022-12-17T05:12:03.897Z,102579.88
2022-12-17T05:14:48.697Z,102583.28
2022-12-17T05:17:33.925Z,102583.41
2022-12-17T05:20:19.116Z,102580.69
2022-12-17T05:23:04.269Z,102585.63
2022-12-17T05:25:49.427Z,102581.28
2022-12-17T05:28:34.608Z,102585.63
2022-12-17T05:31:39.372Z,102574.56
2022-12-17T05:34:24.674Z,102576.22
2022-12-17T05:37:09.489Z,102580.56
2022-12-17T05:39:54.487Z,102580.56
2022-12-17T05:42:39.659Z,102578.09
2022-12-17T05:45:25.255Z,102581.66
2022-12-17T05:48:16.084Z,102579.88
2022-12-17T05:51:01.193Z,102571.28
2022-12-17T05:53:46.260Z,102580.13
2022-12-17T05:56:31.553Z,102570.72
2022-12-17T05:59:16.868Z,102574.13
2022-12-17T06:02:02.075Z,102584.34
2022-12-17T06:04:47.211Z,102589.66
2022-12-17T06:07:32.207Z,102578.59
2022-12-17T06:10:17.343Z,102583.78
2022-12-17T06:13:02.065Z,102583.09
2022-12-17T06:15:46.948Z,102587.44
2022-12-17T06:18:31.760Z,102592.75
2022-12-17T06:21:16.858Z,102584.16
2022-12-17T06:24:01.889Z,102590.16
2022-12-17T06:26:47.112Z,102587.81
2022-12-17T06:29:32.284Z,102583.56
2022-12-17T06:32:17.304Z,102582.88
2022-12-17T06:35:02.364Z,102589.00
2022-12-17T06:37:47.395Z,102584.06
2022-12-17T06:40:32.326Z,102588.53
2022-12-17T06:43:17.544Z,102596.44
2022-12-17T06:46:02.594Z,102602.44
2022-12-17T06:48:47.707Z,102616.06
2022-12-17T06:51:32.723Z,102609.13
2022-12-17T06:54:18.045Z,102610.91
2022-12-17T06:57:03.161Z,102610.91
2022-12-17T07:00:02.447Z,102622.09
2022-12-17T07:02:47.273Z,102621.03
2022-12-17T07:05:32.439Z,102631.13
2022-12-17T07:08:19.084Z,102628.53
2022-12-17T07:11:04.770Z,102637.97
2022-12-17T07:13:49.907Z,102638.19
2022-12-17T07:16:35.187Z,102645.03
2022-12-17T07:19:25.345Z,102648.44
2022-12-17T07:22:12.328Z,102645.03
2022-12-17T07:24:57.560Z,102645.97
2022-12-17T07:27:42.626Z,102648.56
2022-12-17T07:30:28.412Z,102656.31
2022-12-17T07:33:21.752Z,102659.84
2022-12-17T07:36:06.911Z,102656.91
2022-12-17T07:38:52.753Z,102662.91
2022-12-17T07:41:37.968Z,102672.22
2022-12-17T07:44:22.985Z,102666.91
2022-12-17T07:47:08.128Z,102685.75
2022-12-17T07:49:53.280Z,102683.03
2022-12-17T07:52:38.343Z,102680.44
2022-12-17T07:55:23.983Z,102687.50
2022-12-17T07:58:20.819Z,102682.91
2022-12-17T08:01:06.372Z,102681.13
2022-12-17T08:03:51.396Z,102679.50
2022-12-17T08:06:36.641Z,102684.56
2022-12-17T08:09:22.258Z,102693.97
2022-12-17T08:12:07.323Z,102702.69
2022-12-17T08:14:52.170Z,102705.97
2022-12-17T08:17:37.349Z,102727.53
2022-12-17T08:20:23.084Z,102726.69
2022-12-17T08:23:08.186Z,102730.22
2022-12-17T08:25:53.425Z,102733.53
2022-12-17T08:28:50.570Z,102730.94
2022-12-17T08:31:36.814Z,102724.81
2022-12-17T08:34:21.874Z,102725.63
2022-12-17T08:37:07.109Z,102734.94
2022-12-17T08:39:52.108Z,102739.88
2022-12-17T08:42:37.272Z,102726.91
2022-12-17T08:45:22.839Z,102729.13
2022-12-17T08:48:07.941Z,102725.34
2022-12-17T08:50:53.130Z,102735.22
2022-12-17T08:53:38.435Z,102741.44
2022-12-17T08:56:24.462Z,102735.91
2022-12-17T08:59:09.488Z,102728.94
2022-12-17T09:01:54.565Z,102724.00
2022-12-17T09:04:39.860Z,102730.00
2022-12-17T09:07:24.978Z,102735.91
2022-12-17T09:10:10.257Z,102746.59
2022-12-17T09:12:57.548Z,102732.00
2022-12-17T09:15:46.127Z,102741.25
2022-12-17T09:18:31.361Z,102733.38
2022-12-17T09:21:16.516Z,102738.81
2022-12-17T09:24:01.584Z,102736.84
2022-12-17T09:26:46.567Z,102750.41
2022-12-17T09:29:31.590Z,102762.91
2022-12-17T09:32:16.978Z,102771.88
2022-12-17T09:35:02.157Z,102773.16
2022-12-17T09:37:47.248Z,102770.44
2022-12-17T09:40:39.723Z,102774.00
2022-12-17T09:43:37.160Z,102785.53
2022-12-17T09:46:32.386Z,102780.44
2022-12-17T09:49:28.279Z,102772.31
2022-12-17T09:52:13.268Z,102775.59
2022-12-17T09:55:02.429Z,102774.53
2022-12-17T09:57:52.701Z,102781.38
2022-12-17T10:00:44.968Z,102782.06
2022-12-17T10:03:37.414Z,102793.94
2022-12-17T10:06:42.277Z,102790.16
2022-12-17T10:09:33.556Z,102786.94
2022-12-17T10:12:29.759Z,102776.47
2022-12-17T10:15:14.561Z,102782.47
2022-12-17T10:17:59.551Z,102774.31
2022-12-17T10:20:54.552Z,102770.91
2022-12-17T10:23:44.739Z,102767.25
2022-12-17T10:26:36.245Z,102767.56
2022-12-17T10:29:30.084Z,102768.69
2022-12-17T10:32:18.603Z,102767.50
2022-12-17T10:35:05.901Z,102763.25
2022-12-17T10:37:54.283Z,102765.34
2022-12-17T10:40:45.250Z,102770.41
2022-12-17T10:43:59.830Z,102777.00
2022-12-17T10:46:50.015Z,102784.22
2022-12-17T10:49:38.414Z,102782.31
2022-12-17T10:52:26.318Z,102785.72
2022-12-17T10:55:19.878Z,102788.78
2022-12-17T10:58:06.466Z,102793.03
2022-12-17T11:00:54.582Z,102793.84
2022-12-17T11:04:06.692Z,102785.44
2022-12-17T11:07:05.298Z,102786.81
2022-12-17T11:10:12.370Z,102789.56
2022-12-17T11:13:04.062Z,102792.03
2022-12-17T11:15:52.152Z,102796.50
2022-12-17T11:18:50.596Z,102798.16
2022-12-17T11:21:43.891Z,102798.03
2022-12-17T11:25:37.052Z,102795.00
2022-12-17T11:28:40.358Z,102790.75
2022-12-17T11:31:58.009Z,102776.25
2022-12-17T11:35:03.330Z,102780.50
2022-12-17T11:38:29.473Z,102772.47
2022-12-17T11:41:27.853Z,102778.91
2022-12-17T11:44:23.233Z,102786.53
2022-12-17T11:47:30.579Z,102805.41
2022-12-17T11:50:25.031Z,102802.00
2022-12-17T11:53:27.913Z,102795.03
2022-12-17T11:56:41.653Z,102794.53
2022-12-17T11:59:52.927Z,102797.00
2022-12-17T12:03:04.710Z,102786.50
2022-12-17T12:06:05.599Z,102794.28
2022-12-17T12:09:16.348Z,102799.72
2022-12-17T12:12:01.333Z,102791.31
2022-12-17T12:15:22.664Z,102785.03
2022-12-17T12:18:32.136Z,102786.03
2022-12-17T12:21:37.766Z,102777.75
2022-12-17T12:24:48.309Z,102784.47
2022-12-17T12:27:42.878Z,102795.66
2022-12-17T12:30:33.982Z,102786.94
2022-12-17T12:33:48.652Z,102780.53
2022-12-17T12:36:35.437Z,102780.28
2022-12-17T12:39:20.562Z,102787.00
2022-12-17T12:42:32.444Z,102787.25
2022-12-17T12:45:26.222Z,102780.66
2022-12-17T12:48:49.071Z,102784.09
2022-12-17T12:51:41.147Z,102778.63
2022-12-17T12:54:40.529Z,102774.66
2022-12-17T12:57:52.103Z,102773.00
2022-12-17T13:00:50.497Z,102781.22
2022-12-17T13:03:50.449Z,102774.41
2022-12-17T13:07:02.495Z,102774.00
2022-12-17T13:09:38.934Z,102767.56
2022-12-17T13:12:05.390Z,102771.34
2022-12-17T13:14:36.668Z,102768.56
2022-12-17T13:17:31.430Z,102762.31
2022-12-17T13:19:57.859Z,102764.34
2022-12-17T13:22:28.645Z,102762.53
2022-12-17T13:25:09.963Z,102765.50
2022-12-17T13:27:40.436Z,102765.94
2022-12-17T13:30:23.906Z,102768.34
2022-12-17T13:32:59.682Z,102764.47
2022-12-17T13:35:41.268Z,102765.19
2022-12-17T13:38:16.753Z,102766.69
2022-12-17T13:41:09.603Z,102766.69
2022-12-17T13:43:45.466Z,102765.69
2022-12-17T13:46:27.538Z,102772.06
2022-12-17T13:48:59.412Z,102773.97
2022-12-17T13:51:29.244Z,102769.72
2022-12-17T13:54:04.049Z,102769.72
2022-12-17T13:56:34.297Z,102754.28
2022-12-17T13:59:08.763Z,102758.47
2022-12-17T14:01:45.572Z,102758.59
2022-12-17T14:04:20.659Z,102756.13
2022-12-17T14:06:48.284Z,102768.75
2022-12-17T14:09:20.188Z,102769.72
2022-12-17T14:12:07.239Z,102765.09
2022-12-17T14:14:38.213Z,102767.69
2022-12-17T14:17:04.934Z,102764.28
2022-12-17T14:19:32.905Z,102767.94
2022-12-17T14:22:00.682Z,102761.59
2022-12-17T14:24:29.529Z,102764.81
2022-12-17T14:26:59.623Z,102792.75
2022-12-17T14:29:31.209Z,102791.81
2022-12-17T14:32:00.405Z,102791.81
2022-12-17T14:34:27.388Z,102795.84
2022-12-17T14:36:59.657Z,102794.44
2022-12-17T14:39:28.963Z,102797.53
2022-12-17T14:42:16.156Z,102792.69
2022-12-17T14:44:52.551Z,102795.53
2022-12-17T14:47:27.305Z,102799.19
2022-12-17T14:50:07.350Z,102806.00
2022-12-17T14:52:38.309Z,102799.75
2022-12-17T14:55:23.417Z,102806.00
2022-12-17T14:57:54.893Z,102799.41
2022-12-17T15:00:21.927Z,102801.78
2022-12-17T15:02:54.401Z,102801.00
2022-12-17T15:05:21.196Z,102807.69
2022-12-17T15:07:47.981Z,102804.53
2022-12-17T15:10:19.341Z,102807.47
2022-12-17T15:12:46.064Z,102794.63
2022-12-17T15:15:14.628Z,102808.53
2022-12-17T15:17:41.793Z,102806.75
2022-12-17T15:20:16.862Z,102818.06
2022-12-17T15:22:43.391Z,102818.06
2022-12-17T15:25:20.008Z,102813.09
2022-12-17T15:27:46.666Z,102824.28
2022-12-17T15:30:16.066Z,102830.28
2022-12-17T15:32:43.179Z,102830.28
2022-12-17T15:35:11.852Z,102832.06
2022-12-17T15:37:38.352Z,102835.03
2022-12-17T15:40:06.896Z,102839.63
2022-12-17T15:42:51.917Z,102839.84
2022-12-17T15:45:18.420Z,102838.31
2022-12-17T15:47:44.909Z,102849.72
2022-12-17T15:50:11.405Z,102857.38
2022-12-17T15:52:37.930Z,102850.44
2022-12-17T15:55:04.716Z,102859.84
2022-12-17T15:57:31.151Z,102850.66
2022-12-17T15:59:57.628Z,102855.94
2022-12-17T16:02:24.299Z,102850.78
2022-12-17T16:04:50.964Z,102853.25
2022-12-17T16:07:17.424Z,102848.19
2022-12-17T16:09:43.900Z,102844.88
2022-12-17T16:12:10.408Z,102855.22
2022-12-17T16:14:36.921Z,102860.28
2022-12-17T16:17:03.466Z,102867.84
2022-12-17T16:19:30.045Z,102873.25
2022-12-17T16:21:56.544Z,102868.41
2022-12-17T16:24:23.254Z,102862.41
2022-12-17T16:26:49.770Z,102864.28
2022-12-17T16:29:16.223Z,102873.81
2022-12-17T16:31:42.915Z,102866.88
2022-12-17T16:34:10.904Z,102870.28
2022-12-17T16:36:37.597Z,102866.97
2022-12-17T16:39:04.944Z,102863.78
2022-12-17T16:41:31.912Z,102866.59
2022-12-17T16:43:58.552Z,102869.31
2022-12-17T16:46:30.898Z,102875.69
2022-12-17T16:48:59.992Z,102877.56
2022-12-17T16:51:29.308Z,102876.72
2022-12-17T16:53:56.962Z,102876.84
2022-12-17T16:56:28.325Z,102873.53
2022-12-17T16:58:55.281Z,102879.66
2022-12-17T17:01:24.616Z,102880.59
2022-12-17T17:03:51.373Z,102872.00
2022-12-17T17:06:18.691Z,102877.28
2022-12-17T17:08:45.602Z,102872.22
2022-12-17T17:11:16.767Z,102878.44
2022-12-17T17:13:43.662Z,102874.31
2022-12-17T17:16:11.095Z,102877.72
2022-12-17T17:18:38.625Z,102881.38
2022-12-17T17:21:20.659Z,102879.59
2022-12-17T17:23:48.445Z,102885.59
2022-12-17T17:26:15.936Z,102882.19
2022-12-17T17:28:42.665Z,102888.19
2022-12-17T17:31:12.676Z,102888.06
2022-12-17T17:33:43.150Z,102885.50
2022-12-17T17:36:12.420Z,102884.88
2022-12-17T17:38:41.170Z,102881.69
2022-12-17T17:41:11.474Z,102885.22
2022-12-17T17:43:38.092Z,102881.19
2022-12-17T17:46:27.282Z,102885.66
2022-12-17T17:48:57.093Z,102885.56
2022-12-17T17:51:59.805Z,102888.25
2022-12-17T17:54:15.645Z,102891.75
2022-12-17T17:56:43.297Z,102896.13
2022-12-17T17:59:20.562Z,102899.53
2022-12-17T18:01:51.185Z,102896.25
2022-12-17T18:04:21.331Z,102902.25
2022-12-17T18:07:16.543Z,102905.63
2022-12-17T18:09:35.182Z,102898.59
2022-12-17T18:12:22.698Z,102901.19
2022-12-17T18:15:12.565Z,102904.69
2022-12-17T18:17:35.561Z,102909.19
2022-12-17T18:20:02.227Z,102909.88
2022-12-17T18:22:28.991Z,102921.16
2022-12-17T18:24:55.495Z,102922.13
2022-12-17T18:27:22.346Z,102921.16
2022-12-17T18:29:48.844Z,102921.88
2022-12-17T18:32:15.293Z,102930.34
2022-12-17T18:34:41.856Z,102927.03
2022-12-17T18:37:08.357Z,102920.47
2022-12-17T18:39:34.971Z,102909.50
2022-12-17T18:42:20.209Z,102901.88
2022-12-17T18:44:46.728Z,102898.34
2022-12-17T18:47:13.413Z,102902.69
2022-12-17T18:49:40.189Z,102909.63
2022-12-17T18:52:11.752Z,102907.25
2022-12-17T18:54:41.382Z,102906.66
2022-12-17T18:57:07.863Z,102904.06
2022-12-17T18:59:34.674Z,102911.72
2022-12-17T19:02:01.761Z,102912.66
2022-12-17T19:04:28.408Z,102919.47
2022-12-17T19:06:55.163Z,102919.69
2022-12-17T19:09:31.311Z,102930.03
2022-12-17T19:11:58.110Z,102929.31
2022-12-17T19:14:25.798Z,102931.50
2022-12-17T19:16:54.800Z,102936.28
2022-12-17T19:19:22.037Z,102930.47
2022-12-17T19:21:48.936Z,102934.84
2022-12-17T19:24:17.816Z,102930.84
2022-12-17T19:26:44.996Z,102936.72
2022-12-17T19:29:13.268Z,102937.03
2022-12-17T19:31:40.731Z,102932.91
2022-12-17T19:34:09.888Z,102935.50
2022-12-17T19:36:37.764Z,102944.06
2022-12-17T19:39:07.416Z,102936.53
2022-12-17T19:41:35.017Z,102935.72
2022-12-17T19:44:06.421Z,102946.03
2022-12-17T19:46:34.979Z,102937.78
2022-12-17T19:49:02.239Z,102944.09
2022-12-17T19:51:31.763Z,102951.84
2022-12-17T19:54:03.200Z,102949.25
2022-12-17T19:56:34.561Z,102951.44
2022-12-17T19:59:03.723Z,102947.28
2022-12-17T20:01:40.368Z,102956.59
2022-12-17T20:04:06.968Z,102956.59
2022-12-17T20:06:35.227Z,102958.97
2022-12-17T20:09:03.966Z,102959.91
2022-12-17T20:11:33.492Z,102966.09
2022-12-17T20:14:09.149Z,102966.00
2022-12-17T20:16:41.409Z,102965.91
2022-12-17T20:19:14.139Z,102966.94
2022-12-17T20:21:41.429Z,102963.84
2022-12-17T20:24:09.636Z,102972.72
2022-12-17T20:26:37.016Z,102974.06
2022-12-17T20:29:04.800Z,102985.56
2022-12-17T20:31:32.540Z,102980.41
2022-12-17T20:34:00.701Z,102987.31
2022-12-17T20:36:27.577Z,102977.81
2022-12-17T20:38:55.211Z,102979.78
2022-12-17T20:41:24.608Z,102979.78
2022-12-17T20:43:51.783Z,102969.34
2022-12-17T20:46:20.137Z,102964.19
2022-12-17T20:48:47.805Z,102956.84
2022-12-17T20:51:20.532Z,102959.63
2022-12-17T20:53:47.548Z,102969.84
2022-12-17T20:56:18.814Z,102963.56
2022-12-17T20:58:45.636Z,102964.69
2022-12-17T21:01:16.229Z,102963.25
2022-12-17T21:03:43.328Z,102962.41
2022-12-17T21:06:13.121Z,102968.31
2022-12-17T21:08:44.907Z,102963.53
2022-12-17T21:11:21.783Z,102972.22
2022-12-17T21:13:48.329Z,102978.94
2022-12-17T21:16:20.716Z,102976.56
2022-12-17T21:18:47.415Z,102982.34
2022-12-17T21:21:18.155Z,102981.94
2022-12-17T21:23:46.428Z,102979.25
2022-12-17T21:26:21.945Z,102967.38
2022-12-17T21:28:51.081Z,102969.34
2022-12-17T21:31:28.988Z,102977.09
2022-12-17T21:33:58.997Z,102990.09
2022-12-17T21:36:27.887Z,102988.34
2022-12-17T21:38:54.725Z,102990.09
2022-12-17T21:41:23.762Z,102997.66
2022-12-17T21:43:55.231Z,103002.91
2022-12-17T21:46:21.908Z,103009.81
2022-12-17T21:48:48.924Z,103005.59
2022-12-17T21:51:15.980Z,103009.09
2022-12-17T21:53:43.707Z,103011.16
2022-12-17T21:56:16.023Z,103024.25
2022-12-17T21:58:44.111Z,103029.63
2022-12-17T22:01:19.396Z,103026.94
2022-12-17T22:03:47.693Z,103034.19
2022-12-17T22:06:21.553Z,103033.16
2022-12-17T22:08:49.528Z,103023.22
2022-12-17T22:11:22.315Z,103031.28
2022-12-17T22:14:18.678Z,103037.94
2022-12-17T22:16:48.243Z,103041.44
2022-12-17T22:19:18.101Z,103047.63
2022-12-17T22:21:50.280Z,103046.72
2022-12-17T22:24:19.401Z,103043.53
2022-12-17T22:26:46.339Z,103040.94
2022-12-17T22:29:33.627Z,103038.13
2022-12-17T22:32:19.123Z,103036.72
2022-12-17T22:36:31.257Z,103033.22
2022-12-17T22:40:21.192Z,103040.50
2022-12-17T22:44:29.671Z,103049.81
2022-12-17T22:44:41.009Z,103054.03
2022-12-17T22:46:16.416Z,103048.25
2022-12-17T22:48:42.932Z,103031.09
2022-12-17T22:51:21.070Z,103032.13
2022-12-17T22:53:56.963Z,103016.94
2022-12-17T22:56:41.430Z,103011.06
2022-12-17T22:59:17.965Z,103019.53
2022-12-17T23:01:45.173Z,103024.59
2022-12-17T23:04:16.173Z,103034.28
2022-12-17T23:06:45.500Z,103038.88
2022-12-17T23:09:19.359Z,103046.28
2022-12-17T23:11:47.298Z,103046.19
2022-12-17T23:14:14.134Z,103044.25
2022-12-17T23:16:41.102Z,103047.34
2022-12-17T23:19:07.986Z,103048.81
2022-12-17T23:21:35.601Z,103044.31
2022-12-17T23:24:02.174Z,103036.47
2022-12-17T23:26:31.666Z,103027.78
2022-12-17T23:29:04.143Z,103027.78
2022-12-17T23:31:33.608Z,103035.44
2022-12-17T23:34:00.387Z,103039.78
2022-12-17T23:36:27.473Z,103039.13
2022-12-17T23:38:56.268Z,103046.78
2022-12-17T23:41:26.757Z,103050.28
2022-12-17T23:43:54.211Z,103050.94
2022-12-17T23:46:23.139Z,103051.75
2022-12-17T23:48:50.272Z,103039.78
2022-12-17T23:51:22.921Z,103031.41
2022-12-17T23:53:49.652Z,103030.03
2022-12-17T23:56:19.579Z,103025.16
2022-12-17T23:58:47.046Z,103024.53
